Time;durP1;ratioP1;P1;durP2;ratioP2;P2;SDS_P1;SDS_P2;PMS_P1;PMS_P2;Temp;Humidity;BMP_temperature;BMP_pressure;BME280_temperature;BME280_humidity;BME280_pressure;Samples;Min_cycle;Max_cycle;Signal;HPM_P1;HPM_P2
2021/08/26 00:01:02;;;;;;;3.15;1.90;;;24.40;52.30;;;;;;5023067;28;20391;-65
2021/08/26 00:06:19;;;;;;;3.40;2.28;;;24.40;52.50;;;;;;5023023;28;20433;-66
2021/08/26 00:08:48;;;;;;;3.30;2.10;;;24.40;52.40;;;;;;5022544;28;20407;-65
2021/08/26 00:11:19;;;;;;;3.10;1.80;;;24.40;52.40;;;;;;5021196;28;20510;-65
2021/08/26 00:13:46;;;;;;;3.70;2.10;;;24.30;52.40;;;;;;5022854;28;20399;-66
2021/08/26 00:16:12;;;;;;;3.78;2.30;;;24.30;52.40;;;;;;5022899;28;20449;-66
2021/08/26 00:18:40;;;;;;;3.53;2.20;;;24.30;52.30;;;;;;5022177;28;20823;-66
2021/08/26 00:21:06;;;;;;;3.30;2.23;;;24.50;52.40;;;;;;5022949;28;20395;-66
2021/08/26 00:23:32;;;;;;;3.35;2.10;;;24.30;52.30;;;;;;5022834;28;20410;-66
2021/08/26 00:25:57;;;;;;;3.08;2.20;;;24.30;52.50;;;;;;5022737;28;20414;-65
2021/08/26 00:28:23;;;;;;;3.00;2.00;;;24.30;52.70;;;;;;5022776;28;20397;-66
2021/08/26 00:30:49;;;;;;;3.10;2.07;;;24.30;52.40;;;;;;5022179;28;20476;-65
2021/08/26 00:33:15;;;;;;;2.60;2.00;;;24.20;52.30;;;;;;5022658;28;20744;-65
2021/08/26 00:35:42;;;;;;;3.33;2.33;;;24.20;52.40;;;;;;5021965;28;20398;-66
2021/08/26 00:38:07;;;;;;;3.50;2.10;;;24.20;52.40;;;;;;5022372;28;20593;-65
2021/08/26 00:40:33;;;;;;;3.72;2.20;;;24.20;52.40;;;;;;5022525;28;20968;-65
2021/08/26 00:42:59;;;;;;;2.33;1.65;;;24.20;52.30;;;;;;5022082;28;20938;-65
2021/08/26 00:45:26;;;;;;;3.35;1.98;;;24.20;52.40;;;;;;5022807;28;20387;-65
2021/08/26 00:47:51;;;;;;;2.90;2.00;;;24.20;52.40;;;;;;5022929;28;20484;-66
2021/08/26 00:50:17;;;;;;;3.00;1.92;;;24.20;52.50;;;;;;5022421;28;20371;-65
2021/08/26 00:52:46;;;;;;;2.80;1.90;;;24.20;52.50;;;;;;5021784;28;20399;-66
2021/08/26 00:55:13;;;;;;;3.35;2.13;;;24.10;52.50;;;;;;5022311;28;20382;-65
2021/08/26 00:57:39;;;;;;;2.90;2.10;;;24.20;52.50;;;;;;5022255;28;20489;-66
2021/08/26 01:00:10;;;;;;;3.10;2.13;;;24.10;52.80;;;;;;5022532;28;20410;-65
2021/08/26 01:03:01;;;;;;;3.05;2.00;;;24.10;52.60;;;;;;5022392;28;20514;-66
2021/08/26 01:05:51;;;;;;;2.95;2.08;;;24.10;52.50;;;;;;5021883;28;20423;-65
2021/08/26 01:08:22;;;;;;;2.85;1.92;;;24.10;52.60;;;;;;5022086;28;20402;-65
2021/08/26 01:10:53;;;;;;;3.08;2.10;;;24.10;52.90;;;;;;5021584;28;20449;-65
2021/08/26 01:13:20;;;;;;;2.78;1.90;;;24.10;52.60;;;;;;5021901;28;20383;-65
2021/08/26 01:16:08;;;;;;;3.40;2.20;;;24.10;52.60;;;;;;5022063;28;20410;-65
2021/08/26 01:18:40;;;;;;;3.00;2.00;;;24.00;52.80;;;;;;5021562;28;20410;-65
2021/08/26 01:21:17;;;;;;;3.40;2.30;;;24.00;52.90;;;;;;5021895;28;20390;-65
2021/08/26 01:23:47;;;;;;;3.15;2.03;;;23.90;52.90;;;;;;5022076;28;20388;-66
2021/08/26 01:26:22;;;;;;;3.65;1.90;;;24.00;53.20;;;;;;5022194;28;20383;-66
2021/08/26 01:28:49;;;;;;;3.65;2.20;;;23.90;53.20;;;;;;5053414;28;20391;-65
2021/08/26 01:31:17;;;;;;;3.63;2.30;;;23.90;53.10;;;;;;5021971;28;20462;-65
2021/08/26 01:33:45;;;;;;;2.80;1.90;;;24.00;53.00;;;;;;5022101;28;20474;-66
2021/08/26 01:36:11;;;;;;;2.95;1.92;;;24.00;52.90;;;;;;5022117;28;20479;-65
2021/08/26 01:38:38;;;;;;;3.40;1.97;;;24.00;52.80;;;;;;5021586;28;20494;-65
2021/08/26 01:41:04;;;;;;;3.00;2.00;;;23.90;53.00;;;;;;5021947;28;21318;-65
2021/08/26 01:43:32;;;;;;;3.83;2.20;;;24.00;52.90;;;;;;5021892;28;20399;-65
2021/08/26 01:45:58;;;;;;;6.30;2.00;;;23.90;52.90;;;;;;5021721;28;20394;-65
2021/08/26 01:48:24;;;;;;;3.65;2.10;;;23.90;53.00;;;;;;5025486;28;20399;-65
2021/08/26 01:50:50;;;;;;;3.13;1.70;;;23.90;53.00;;;;;;5023705;28;20399;-66
2021/08/26 01:53:17;;;;;;;2.83;1.83;;;23.90;53.00;;;;;;5025440;28;20399;-65
2021/08/26 01:55:45;;;;;;;3.28;1.95;;;23.90;53.10;;;;;;5025618;28;20410;-66
2021/08/26 01:58:11;;;;;;;2.95;1.85;;;23.90;53.30;;;;;;5025503;28;20398;-65
2021/08/26 02:00:38;;;;;;;2.97;1.80;;;23.90;53.10;;;;;;5024952;28;20448;-64
2021/08/26 02:03:03;;;;;;;2.97;1.90;;;23.90;53.00;;;;;;5025086;28;20915;-66
2021/08/26 02:05:29;;;;;;;2.80;1.80;;;23.90;53.20;;;;;;5025250;28;20398;-65
2021/08/26 02:07:55;;;;;;;2.92;1.92;;;23.90;53.10;;;;;;5025442;28;20390;-65
2021/08/26 02:10:21;;;;;;;2.90;1.92;;;23.90;53.10;;;;;;5025086;28;20462;-65
2021/08/26 02:12:47;;;;;;;2.95;1.60;;;23.90;53.00;;;;;;5024676;28;20398;-65
2021/08/26 02:15:14;;;;;;;3.65;1.95;;;23.90;53.20;;;;;;5025328;28;20395;-65
2021/08/26 02:17:39;;;;;;;3.07;2.23;;;23.80;53.20;;;;;;5024846;28;20407;-65
2021/08/26 02:20:07;;;;;;;2.80;1.90;;;23.80;53.10;;;;;;5025085;28;20417;-65
2021/08/26 02:22:32;;;;;;;2.97;1.95;;;23.80;53.10;;;;;;5024760;28;20463;-65
2021/08/26 02:24:58;;;;;;;2.78;1.90;;;23.80;53.10;;;;;;5024025;28;20438;-64
2021/08/26 02:27:24;;;;;;;2.55;1.90;;;23.80;53.10;;;;;;5024683;28;20407;-66
2021/08/26 02:29:49;;;;;;;2.53;1.77;;;23.80;53.20;;;;;;5024629;28;20494;-65
2021/08/26 02:32:15;;;;;;;3.17;2.10;;;23.80;53.20;;;;;;5024645;28;20802;-65
2021/08/26 02:34:40;;;;;;;2.73;1.83;;;23.70;53.10;;;;;;5023973;28;20474;-65
2021/08/26 02:37:07;;;;;;;3.10;1.95;;;23.70;53.10;;;;;;5024288;28;20396;-65
2021/08/26 02:39:36;;;;;;;2.83;1.80;;;23.80;53.20;;;;;;5024500;28;20875;-65
2021/08/26 02:42:03;;;;;;;2.70;2.00;;;23.70;53.20;;;;;;5023399;28;20525;-65
2021/08/26 02:44:29;;;;;;;2.90;1.80;;;23.70;53.20;;;;;;5025069;28;20405;-65
2021/08/26 02:46:55;;;;;;;2.50;1.83;;;23.70;53.20;;;;;;5023942;28;21072;-65
2021/08/26 02:49:20;;;;;;;3.25;2.05;;;23.70;53.20;;;;;;5024521;28;20391;-65
2021/08/26 02:51:46;;;;;;;2.70;1.83;;;23.70;53.30;;;;;;5024488;28;20747;-65
2021/08/26 02:54:12;;;;;;;2.60;1.80;;;23.70;53.30;;;;;;5024458;28;20395;-66
2021/08/26 02:56:38;;;;;;;3.33;2.00;;;23.70;53.20;;;;;;5024308;28;20985;-65
2021/08/26 02:59:03;;;;;;;2.63;1.77;;;23.70;53.20;;;;;;5022934;28;20391;-65
2021/08/26 03:01:29;;;;;;;2.85;2.00;;;23.70;53.50;;;;;;5024357;28;20403;-66
2021/08/26 03:03:54;;;;;;;2.37;1.67;;;23.70;53.20;;;;;;5024092;28;20452;-65
2021/08/26 03:06:20;;;;;;;3.25;2.05;;;23.60;53.40;;;;;;5024273;28;20390;-65
2021/08/26 03:08:46;;;;;;;3.20;1.90;;;23.60;53.60;;;;;;5023566;28;20399;-65
2021/08/26 03:11:11;;;;;;;3.42;1.98;;;23.60;53.50;;;;;;5056075;28;20387;-65
2021/08/26 03:13:37;;;;;;;3.10;1.80;;;23.60;53.80;;;;;;5023961;28;20444;-66
2021/08/26 03:16:04;;;;;;;3.03;1.88;;;23.60;53.90;;;;;;5024226;28;20386;-65
2021/08/26 03:18:31;;;;;;;3.88;2.00;;;23.60;53.60;;;;;;5023896;28;20419;-66
2021/08/26 03:20:56;;;;;;;4.10;2.17;;;23.60;54.70;;;;;;5022944;28;21005;-67
2021/08/26 03:23:22;;;;;;;3.07;1.80;;;23.60;54.90;;;;;;5000682;28;20458;-66
2021/08/26 03:25:48;;;;;;;4.10;2.03;;;23.60;54.90;;;;;;5011719;28;20863;-65
2021/08/26 03:28:15;;;;;;;4.13;2.03;;;23.60;55.10;;;;;;4985215;28;20417;-65
2021/08/26 03:30:41;;;;;;;2.90;1.80;;;23.60;55.20;;;;;;4991613;28;20860;-66
2021/08/26 03:33:07;;;;;;;3.53;1.98;;;23.60;54.70;;;;;;4985108;28;20406;-66
2021/08/26 03:35:33;;;;;;;4.67;2.10;;;23.60;55.40;;;;;;4991489;28;20391;-65
2021/08/26 03:37:58;;;;;;;4.57;2.00;;;23.70;55.40;;;;;;4994825;28;20392;-65
2021/08/26 03:40:24;;;;;;;4.80;2.13;;;23.70;55.10;;;;;;4990311;28;20572;-65
2021/08/26 03:42:50;;;;;;;4.60;2.08;;;23.70;55.40;;;;;;4995168;28;20417;-65
2021/08/26 03:45:15;;;;;;;4.70;1.90;;;23.70;55.70;;;;;;4992670;28;20423;-64
2021/08/26 03:47:41;;;;;;;5.88;2.00;;;23.70;55.90;;;;;;4992427;28;20494;-65
2021/08/26 03:50:07;;;;;;;6.20;2.30;;;23.70;55.60;;;;;;4990036;28;20397;-65
2021/08/26 03:52:33;;;;;;;4.10;1.90;;;23.70;56.00;;;;;;4989319;28;20398;-66
2021/08/26 03:54:58;;;;;;;3.87;1.90;;;23.70;55.60;;;;;;4990066;28;20408;-66
2021/08/26 03:57:24;;;;;;;3.25;2.20;;;23.70;55.70;;;;;;4988849;28;20879;-65
2021/08/26 03:59:49;;;;;;;5.07;1.90;;;23.70;55.10;;;;;;4989331;28;20492;-65
2021/08/26 04:02:15;;;;;;;5.07;2.00;;;23.60;55.30;;;;;;4986398;28;20430;-66
2021/08/26 04:04:41;;;;;;;2.80;1.83;;;23.70;55.30;;;;;;4991267;28;20430;-65
2021/08/26 04:07:06;;;;;;;3.75;2.03;;;23.60;55.10;;;;;;4990112;28;20394;-66
2021/08/26 04:09:32;;;;;;;9.33;2.30;;;23.60;54.90;;;;;;4990139;28;20448;-65
2021/08/26 04:11:58;;;;;;;10.00;2.80;;;23.60;55.10;;;;;;4991210;28;20390;-65
2021/08/26 04:14:23;;;;;;;10.35;2.35;;;23.60;54.80;;;;;;4984176;28;20840;-65
2021/08/26 04:16:49;;;;;;;8.40;2.70;;;23.50;54.30;;;;;;4987020;28;20394;-64
2021/08/26 04:19:15;;;;;;;6.53;2.30;;;23.50;54.30;;;;;;4989016;28;20413;-63
2021/08/26 04:21:40;;;;;;;7.10;2.43;;;23.50;54.30;;;;;;4989421;28;20980;-63
2021/08/26 04:24:06;;;;;;;6.85;2.38;;;23.50;54.30;;;;;;4989055;28;20923;-62
2021/08/26 04:26:32;;;;;;;6.13;2.37;;;23.50;54.20;;;;;;4996135;28;20401;-62
2021/08/26 04:28:57;;;;;;;8.65;2.50;;;23.50;54.20;;;;;;4990165;28;20736;-64
2021/08/26 04:31:23;;;;;;;9.13;2.57;;;23.50;54.20;;;;;;4983737;28;20505;-62
2021/08/26 04:33:48;;;;;;;6.43;2.33;;;23.50;54.30;;;;;;4990169;28;20770;-63
2021/08/26 04:36:14;;;;;;;8.17;2.33;;;23.60;54.30;;;;;;5024853;28;20453;-64
2021/08/26 04:38:40;;;;;;;6.90;2.53;;;23.60;54.10;;;;;;4989404;28;20399;-63
2021/08/26 04:41:06;;;;;;;5.87;2.27;;;23.70;53.90;;;;;;4988894;28;20404;-63
2021/08/26 04:43:32;;;;;;;4.95;2.15;;;23.70;53.70;;;;;;4992828;28;21207;-62
2021/08/26 04:45:57;;;;;;;7.82;2.30;;;23.80;53.40;;;;;;4984237;28;20399;-63
2021/08/26 04:48:23;;;;;;;6.40;2.50;;;23.90;53.30;;;;;;4992612;28;21060;-63
2021/08/26 04:50:49;;;;;;;5.10;2.05;;;23.90;53.20;;;;;;4997033;28;20389;-63
2021/08/26 04:53:14;;;;;;;4.47;2.00;;;23.90;53.00;;;;;;4989470;28;20467;-62
2021/08/26 04:55:40;;;;;;;5.03;2.10;;;23.90;52.90;;;;;;4989590;28;20744;-63
2021/08/26 04:58:05;;;;;;;3.67;2.10;;;24.00;52.90;;;;;;4989666;28;20409;-63
2021/08/26 05:00:31;;;;;;;4.07;2.00;;;24.00;52.80;;;;;;4989036;28;20399;-64
2021/08/26 05:02:57;;;;;;;4.38;1.80;;;24.00;52.80;;;;;;4988907;28;20424;-62
2021/08/26 05:05:22;;;;;;;5.07;2.17;;;24.10;52.70;;;;;;4989610;28;20394;-64
2021/08/26 05:07:48;;;;;;;4.03;2.00;;;24.10;52.70;;;;;;4991919;28;20758;-63
2021/08/26 05:10:14;;;;;;;4.40;1.90;;;24.10;52.60;;;;;;4989675;28;20430;-63
2021/08/26 05:12:39;;;;;;;3.75;2.00;;;24.10;53.10;;;;;;4989325;28;20398;-64
2021/08/26 05:15:06;;;;;;;4.40;2.00;;;24.10;52.50;;;;;;4994146;28;20389;-64
2021/08/26 05:17:31;;;;;;;4.50;1.95;;;24.10;52.40;;;;;;4989058;28;20426;-63
2021/08/26 05:19:57;;;;;;;4.15;2.10;;;24.20;52.40;;;;;;4988846;28;20485;-62
2021/08/26 05:22:23;;;;;;;3.63;2.00;;;24.20;52.30;;;;;;4993728;28;21090;-63
2021/08/26 05:24:50;;;;;;;4.28;2.22;;;24.20;52.30;;;;;;4995577;28;20993;-63
2021/08/26 05:27:17;;;;;;;3.72;1.92;;;24.20;52.30;;;;;;4998699;28;20391;-63
2021/08/26 05:29:44;;;;;;;3.67;1.65;;;24.20;52.20;;;;;;4993295;28;20380;-64
2021/08/26 05:32:09;;;;;;;5.20;1.90;;;24.20;52.10;;;;;;4990105;28;20398;-63
2021/08/26 05:34:35;;;;;;;2.97;1.90;;;24.20;52.10;;;;;;4989282;28;20601;-64
2021/08/26 05:37:01;;;;;;;3.80;1.67;;;24.30;52.70;;;;;;4993247;28;20398;-63
2021/08/26 05:39:26;;;;;;;3.17;1.70;;;24.30;52.10;;;;;;4996087;28;20869;-64
2021/08/26 05:41:52;;;;;;;3.20;2.10;;;24.30;52.00;;;;;;4993430;28;20430;-63
2021/08/26 05:44:18;;;;;;;2.97;1.80;;;24.30;52.00;;;;;;4995700;28;20382;-64
2021/08/26 05:46:45;;;;;;;3.20;1.60;;;24.30;52.00;;;;;;4992934;28;20775;-62
2021/08/26 05:49:10;;;;;;;3.90;2.20;;;24.30;51.90;;;;;;4997463;28;20386;-62
2021/08/26 05:51:37;;;;;;;2.37;1.60;;;24.30;51.90;;;;;;4993624;28;20407;-63
2021/08/26 05:54:03;;;;;;;3.10;1.80;;;24.30;51.80;;;;;;4989037;28;20407;-63
2021/08/26 05:56:29;;;;;;;2.85;1.80;;;24.30;51.80;;;;;;4992611;28;20465;-63
2021/08/26 05:58:55;;;;;;;2.88;1.80;;;24.30;51.70;;;;;;4997383;28;20494;-62
2021/08/26 06:01:21;;;;;;;3.27;1.50;;;24.40;51.70;;;;;;4996595;28;21108;-62
2021/08/26 06:03:47;;;;;;;2.72;1.50;;;24.40;51.60;;;;;;4998786;28;20396;-64
2021/08/26 06:06:12;;;;;;;2.90;1.83;;;24.40;51.60;;;;;;4992419;28;20393;-62
2021/08/26 06:08:38;;;;;;;2.10;1.40;;;24.40;51.60;;;;;;4987411;28;20771;-63
2021/08/26 06:11:04;;;;;;;2.50;1.60;;;24.40;51.50;;;;;;4993713;28;20392;-63
2021/08/26 06:13:30;;;;;;;3.03;2.00;;;24.50;51.50;;;;;;4992618;28;20785;-64
2021/08/26 06:15:55;;;;;;;3.22;1.60;;;24.40;51.50;;;;;;4988747;28;20394;-63
2021/08/26 06:18:21;;;;;;;2.40;1.50;;;24.50;51.50;;;;;;4988162;28;20440;-63
2021/08/26 06:20:47;;;;;;;2.55;1.67;;;24.50;51.50;;;;;;4993525;28;20821;-63
2021/08/26 06:23:13;;;;;;;2.75;1.58;;;24.50;51.50;;;;;;4992742;28;20492;-64
2021/08/26 06:25:39;;;;;;;2.63;1.60;;;24.40;51.40;;;;;;4989682;28;20429;-63
2021/08/26 06:28:05;;;;;;;2.57;1.70;;;24.50;51.40;;;;;;4992201;28;20442;-63
2021/08/26 06:30:31;;;;;;;3.55;1.60;;;24.40;51.30;;;;;;5001328;28;20818;-64
2021/08/26 06:32:57;;;;;;;2.70;1.50;;;24.50;51.30;;;;;;4991006;28;20937;-62
2021/08/26 06:35:22;;;;;;;2.87;1.70;;;24.50;51.30;;;;;;4988785;28;20398;-63
2021/08/26 06:37:48;;;;;;;2.75;1.60;;;24.50;51.20;;;;;;4991872;28;20422;-63
2021/08/26 06:40:14;;;;;;;2.40;1.60;;;24.50;51.20;;;;;;4997654;28;20469;-64
2021/08/26 06:42:40;;;;;;;2.40;1.67;;;24.50;51.20;;;;;;4991303;28;20437;-62
2021/08/26 06:45:06;;;;;;;2.67;1.50;;;24.50;51.20;;;;;;4997132;28;20388;-63
2021/08/26 06:47:32;;;;;;;2.40;1.60;;;24.50;51.20;;;;;;4991301;28;20480;-63
2021/08/26 06:49:58;;;;;;;2.53;1.65;;;24.50;51.10;;;;;;4991911;28;20570;-63
2021/08/26 06:52:23;;;;;;;2.40;1.52;;;24.60;51.20;;;;;;4991845;28;20477;-64
2021/08/26 06:54:49;;;;;;;2.37;1.63;;;24.60;51.20;;;;;;4991676;28;20398;-63
2021/08/26 06:57:15;;;;;;;2.60;1.50;;;24.60;51.20;;;;;;4991275;28;20543;-62
2021/08/26 06:59:41;;;;;;;2.50;1.60;;;24.50;51.10;;;;;;4993412;28;20396;-64
2021/08/26 07:02:07;;;;;;;2.30;1.60;;;24.60;51.10;;;;;;4993826;28;20427;-64
2021/08/26 07:04:32;;;;;;;2.53;1.70;;;24.60;51.10;;;;;;4990215;28;20389;-63
2021/08/26 07:06:58;;;;;;;2.40;1.50;;;24.60;51.00;;;;;;4991436;28;20401;-64
2021/08/26 07:09:24;;;;;;;3.50;1.70;;;24.60;51.00;;;;;;4985101;28;20421;-63
2021/08/26 07:11:50;;;;;;;2.33;1.58;;;24.60;51.10;;;;;;4991710;28;20412;-63
2021/08/26 07:14:17;;;;;;;2.50;1.52;;;24.60;51.00;;;;;;4992391;28;20386;-63
2021/08/26 07:16:43;;;;;;;2.45;1.58;;;24.60;51.00;;;;;;4985633;28;20406;-62
2021/08/26 07:19:09;;;;;;;2.95;1.60;;;24.60;51.00;;;;;;4989822;28;20423;-64
2021/08/26 07:21:34;;;;;;;3.22;1.58;;;24.60;51.00;;;;;;4990557;28;20413;-62
2021/08/26 07:24:00;;;;;;;3.13;1.77;;;24.60;51.00;;;;;;4991827;28;20467;-64
2021/08/26 07:26:26;;;;;;;2.53;1.50;;;24.60;51.00;;;;;;4990411;28;20392;-63
2021/08/26 07:28:53;;;;;;;3.20;1.60;;;24.60;51.00;;;;;;4987001;28;21546;-64
2021/08/26 07:31:18;;;;;;;3.08;1.60;;;24.60;51.00;;;;;;4991986;28;20492;-64
2021/08/26 07:33:44;;;;;;;2.20;1.65;;;24.60;51.00;;;;;;5023378;28;20937;-63
2021/08/26 07:36:10;;;;;;;2.70;1.60;;;24.60;51.00;;;;;;4987173;28;20383;-63
2021/08/26 07:38:36;;;;;;;2.63;1.70;;;24.60;51.00;;;;;;4990570;28;20403;-64
2021/08/26 07:41:01;;;;;;;2.20;1.60;;;24.60;51.00;;;;;;4996223;28;20407;-64
2021/08/26 07:43:31;;;;;;;2.42;1.67;;;24.60;51.00;;;;;;4983335;28;20438;-63
2021/08/26 07:45:57;;;;;;;2.90;1.85;;;24.60;51.00;;;;;;4990774;28;20394;-62
2021/08/26 07:48:23;;;;;;;2.93;1.60;;;24.70;51.00;;;;;;4983898;28;20401;-63
2021/08/26 07:50:52;;;;;;;2.08;1.50;;;24.70;51.30;;;;;;4987452;28;20388;-64
2021/08/26 07:53:21;;;;;;;2.40;1.40;;;24.70;50.90;;;;;;4986412;28;20401;-64
2021/08/26 07:55:46;;;;;;;2.50;1.50;;;24.70;50.90;;;;;;4987517;28;20394;-63
2021/08/26 07:58:13;;;;;;;2.10;1.40;;;24.70;51.00;;;;;;4986877;28;20757;-63
2021/08/26 08:00:38;;;;;;;2.90;1.80;;;24.70;50.90;;;;;;4988570;28;20482;-62
2021/08/26 08:03:04;;;;;;;2.47;1.60;;;24.70;50.80;;;;;;4987716;28;20999;-62
2021/08/26 08:05:30;;;;;;;2.10;1.50;;;24.70;50.80;;;;;;4984030;28;20848;-63
2021/08/26 08:07:56;;;;;;;3.03;1.80;;;24.70;50.80;;;;;;4991473;28;20521;-63
2021/08/26 08:10:21;;;;;;;2.78;1.70;;;24.70;50.80;;;;;;4987888;28;20401;-64
2021/08/26 08:12:47;;;;;;;2.30;1.50;;;24.70;50.80;;;;;;5000079;28;20455;-63
2021/08/26 08:15:13;;;;;;;2.65;1.60;;;24.80;50.80;;;;;;4987443;28;20474;-63
2021/08/26 08:17:39;;;;;;;2.42;1.55;;;24.80;50.80;;;;;;4992581;28;20876;-63
2021/08/26 08:20:07;;;;;;;2.40;1.60;;;24.80;50.80;;;;;;4988597;28;20486;-63
2021/08/26 08:22:33;;;;;;;3.00;1.70;;;24.80;50.80;;;;;;5001920;28;20932;-64
2021/08/26 08:25:00;;;;;;;2.08;1.30;;;24.80;50.80;;;;;;5021392;28;20464;-63
2021/08/26 08:27:26;;;;;;;2.63;1.60;;;24.80;50.80;;;;;;4983419;28;20386;-62
2021/08/26 08:29:52;;;;;;;2.88;1.70;;;24.80;50.70;;;;;;4990230;28;20401;-63
2021/08/26 08:32:17;;;;;;;2.43;1.63;;;24.80;50.80;;;;;;4994612;28;20398;-63
2021/08/26 08:34:43;;;;;;;2.65;1.67;;;24.80;50.80;;;;;;4987886;28;20483;-64
2021/08/26 08:37:09;;;;;;;2.30;1.43;;;24.80;50.80;;;;;;4992887;28;20479;-63
2021/08/26 08:39:35;;;;;;;2.08;1.50;;;24.80;50.80;;;;;;4989299;28;20492;-63
2021/08/26 08:42:00;;;;;;;2.40;1.50;;;24.90;50.80;;;;;;4993308;28;20513;-65
2021/08/26 08:44:26;;;;;;;2.22;1.50;;;24.80;50.80;;;;;;4993603;28;20407;-63
2021/08/26 08:46:57;;;;;;;2.10;1.60;;;24.80;50.80;;;;;;4993954;28;20498;-62
2021/08/26 08:49:23;;;;;;;2.47;1.50;;;24.80;50.80;;;;;;4989259;28;20397;-63
2021/08/26 08:51:53;;;;;;;2.20;1.50;;;24.80;50.80;;;;;;4989483;28;20401;-63
2021/08/26 08:54:21;;;;;;;2.92;1.88;;;24.90;50.70;;;;;;4993906;28;20420;-64
2021/08/26 08:56:47;;;;;;;3.13;1.67;;;24.90;50.80;;;;;;4993693;28;20408;-63
2021/08/26 08:59:13;;;;;;;2.58;1.80;;;24.90;50.80;;;;;;4999754;28;20393;-64
2021/08/26 09:01:39;;;;;;;2.70;1.60;;;24.90;50.60;;;;;;4994063;28;20404;-63
2021/08/26 09:04:06;;;;;;;3.10;1.88;;;24.90;50.60;;;;;;4989703;28;20425;-63
2021/08/26 09:06:40;;;;;;;3.00;1.98;;;24.90;50.60;;;;;;4988848;28;20882;-64
2021/08/26 09:09:07;;;;;;;3.22;1.92;;;24.90;50.50;;;;;;4988419;28;20444;-63
2021/08/26 09:11:33;;;;;;;2.50;1.70;;;25.00;50.50;;;;;;4992769;28;20471;-63
2021/08/26 09:14:12;;;;;;;2.67;1.70;;;25.00;50.40;;;;;;4988766;28;20413;-63
2021/08/26 09:16:40;;;;;;;2.90;2.10;;;25.00;50.30;;;;;;4986744;28;20779;-63
2021/08/26 09:19:21;;;;;;;3.10;1.97;;;25.00;50.20;;;;;;4986916;28;20466;-63
2021/08/26 09:21:48;;;;;;;2.78;1.95;;;25.00;50.50;;;;;;4987195;28;20768;-63
2021/08/26 09:24:14;;;;;;;2.63;1.95;;;25.00;50.50;;;;;;5021996;28;20424;-63
2021/08/26 09:26:42;;;;;;;2.80;1.88;;;25.00;50.30;;;;;;4989246;28;20391;-65
2021/08/26 09:29:11;;;;;;;6.20;2.10;;;25.00;50.20;;;;;;4987055;28;20406;-63
2021/08/26 09:31:38;;;;;;;4.85;2.17;;;25.00;50.30;;;;;;4999739;28;20441;-64
2021/08/26 09:34:18;;;;;;;5.25;2.22;;;25.00;50.30;;;;;;4987846;28;20398;-63
2021/08/26 09:36:46;;;;;;;4.30;2.05;;;25.00;50.40;;;;;;4988187;28;20391;-63
2021/08/26 09:39:14;;;;;;;6.75;2.25;;;25.00;50.50;;;;;;5019476;28;20902;-63
2021/08/26 09:41:43;;;;;;;3.70;2.08;;;24.90;50.90;;;;;;4999023;28;20417;-63
2021/08/26 09:44:18;;;;;;;5.70;2.30;;;25.00;51.00;;;;;;4992133;28;20417;-65
2021/08/26 09:46:46;;;;;;;5.25;2.45;;;25.00;50.80;;;;;;4998540;28;20412;-65
2021/08/26 09:49:14;;;;;;;5.10;2.50;;;25.00;50.80;;;;;;4989605;28;20401;-65
2021/08/26 09:51:41;;;;;;;3.33;2.25;;;25.00;50.90;;;;;;4993545;28;20401;-65
2021/08/26 09:54:42;;;;;;;4.15;2.40;;;25.00;51.00;;;;;;4985275;28;20404;-64
2021/08/26 09:57:24;;;;;;;4.13;2.35;;;25.00;50.90;;;;;;4983721;28;20452;-65
2021/08/26 09:59:58;;;;;;;5.13;2.33;;;25.00;51.00;;;;;;4987016;28;20391;-65
2021/08/26 10:02:26;;;;;;;5.15;2.33;;;25.00;50.80;;;;;;4983296;28;20419;-66
2021/08/26 10:04:53;;;;;;;5.57;2.80;;;25.00;50.80;;;;;;4986077;28;20594;-66
2021/08/26 10:07:20;;;;;;;6.07;2.50;;;25.00;50.70;;;;;;4980742;28;20413;-64
2021/08/26 10:09:47;;;;;;;3.97;2.45;;;25.00;50.60;;;;;;5017934;28;20406;-64
2021/08/26 10:12:14;;;;;;;3.85;2.67;;;25.10;50.50;;;;;;4986985;28;20402;-65
2021/08/26 10:14:45;;;;;;;3.80;2.50;;;25.10;50.60;;;;;;4987481;28;20406;-65
2021/08/26 10:17:12;;;;;;;4.97;2.60;;;25.10;50.50;;;;;;4985142;28;20406;-65
2021/08/26 10:19:38;;;;;;;5.45;2.47;;;25.10;50.50;;;;;;4989729;28;20442;-64
2021/08/26 10:22:06;;;;;;;3.90;2.20;;;25.10;50.50;;;;;;4987353;28;20470;-66
2021/08/26 10:24:32;;;;;;;4.05;2.55;;;25.10;50.40;;;;;;4985728;28;20453;-65
2021/08/26 10:27:04;;;;;;;5.18;2.20;;;25.10;50.50;;;;;;4996879;28;20952;-65
2021/08/26 10:29:32;;;;;;;4.53;2.50;;;25.00;50.40;;;;;;4991284;28;20446;-65
2021/08/26 10:32:00;;;;;;;3.53;2.40;;;25.00;50.50;;;;;;4991425;28;21081;-64
2021/08/26 10:34:28;;;;;;;3.23;2.20;;;25.00;50.60;;;;;;4992335;28;20489;-65
2021/08/26 10:36:56;;;;;;;3.60;2.20;;;25.00;50.60;;;;;;4987655;28;20870;-66
2021/08/26 10:39:27;;;;;;;3.35;2.35;;;25.00;50.60;;;;;;4990672;28;20397;-65
2021/08/26 10:41:54;;;;;;;3.30;2.33;;;25.00;50.60;;;;;;4993039;28;20430;-65
2021/08/26 10:44:20;;;;;;;3.33;2.15;;;25.00;50.60;;;;;;4991462;28;20485;-65
2021/08/26 10:46:52;;;;;;;3.53;2.40;;;25.00;50.70;;;;;;4991825;28;20886;-65
2021/08/26 10:49:20;;;;;;;2.80;2.20;;;25.00;50.80;;;;;;4995113;28;20398;-65
2021/08/26 10:51:48;;;;;;;3.38;2.40;;;24.90;50.70;;;;;;4991328;28;20422;-66
2021/08/26 10:54:28;;;;;;;3.35;2.20;;;24.90;50.80;;;;;;4987510;28;20854;-65
2021/08/26 10:56:56;;;;;;;3.20;2.40;;;24.90;50.80;;;;;;4987524;28;20395;-65
2021/08/26 10:59:32;;;;;;;3.25;2.13;;;24.90;50.80;;;;;;4985931;28;20532;-65
2021/08/26 11:01:59;;;;;;;3.15;2.20;;;24.90;50.90;;;;;;4992703;28;20425;-64
2021/08/26 11:04:33;;;;;;;3.88;2.60;;;24.90;50.90;;;;;;4996220;28;20521;-65
2021/08/26 11:06:59;;;;;;;3.22;2.28;;;24.90;50.90;;;;;;4991389;28;21210;-65
2021/08/26 11:09:28;;;;;;;3.42;2.22;;;24.90;50.90;;;;;;4990759;28;20402;-66
2021/08/26 11:11:58;;;;;;;4.30;2.45;;;24.90;51.00;;;;;;4988197;28;20430;-66
2021/08/26 11:14:27;;;;;;;3.28;2.47;;;24.90;50.90;;;;;;4991703;28;20794;-66
2021/08/26 11:16:55;;;;;;;3.37;2.37;;;24.90;50.90;;;;;;4993722;28;20975;-65
2021/08/26 11:19:20;;;;;;;3.00;2.30;;;24.90;50.90;;;;;;4988788;28;20496;-66
2021/08/26 11:21:46;;;;;;;3.13;2.38;;;24.90;50.90;;;;;;4986329;28;20406;-65
2021/08/26 11:24:12;;;;;;;3.40;2.43;;;24.90;50.80;;;;;;5026417;28;20966;-65
2021/08/26 11:26:50;;;;;;;3.05;2.22;;;24.90;50.80;;;;;;4990514;28;20384;-65
2021/08/26 11:29:24;;;;;;;2.70;2.22;;;24.90;51.00;;;;;;4992113;28;20402;-65
2021/08/26 11:32:00;;;;;;;3.47;2.20;;;24.90;50.90;;;;;;4990305;28;20443;-65
2021/08/26 11:34:33;;;;;;;2.88;2.05;;;24.90;50.80;;;;;;4994611;28;20396;-65
2021/08/26 11:37:06;;;;;;;3.42;2.35;;;24.90;50.90;;;;;;4995324;28;20424;-65
2021/08/26 11:39:43;;;;;;;3.38;2.00;;;24.90;50.90;;;;;;4997568;28;20397;-64
2021/08/26 11:42:31;;;;;;;3.60;2.20;;;24.90;50.90;;;;;;4989397;28;20410;-66
2021/08/26 11:45:22;;;;;;;3.10;2.30;;;24.90;50.90;;;;;;4991128;28;20516;-65
2021/08/26 11:47:54;;;;;;;3.87;2.57;;;24.90;50.90;;;;;;5007322;28;20397;-65
2021/08/26 11:50:55;;;;;;;3.20;2.42;;;25.00;51.00;;;;;;4990452;28;20396;-65
2021/08/26 11:53:23;;;;;;;3.20;2.50;;;24.90;51.00;;;;;;4950248;28;20441;-65
2021/08/26 11:55:49;;;;;;;3.40;2.43;;;24.90;50.90;;;;;;4978172;28;20390;-65
2021/08/26 11:58:16;;;;;;;3.20;2.20;;;24.90;50.60;;;;;;4989033;28;20752;-65
2021/08/26 12:00:53;;;;;;;3.25;2.40;;;24.90;51.00;;;;;;4996163;28;20393;-65
2021/08/26 12:03:19;;;;;;;2.80;2.13;;;24.90;50.90;;;;;;4988427;28;20968;-65
2021/08/26 12:05:46;;;;;;;3.50;2.53;;;24.90;50.90;;;;;;4992392;28;20389;-65
2021/08/26 12:08:11;;;;;;;3.22;2.40;;;24.90;51.00;;;;;;4992640;28;20398;-65
2021/08/26 12:10:43;;;;;;;3.10;2.23;;;24.90;51.00;;;;;;5018075;28;20391;-65
2021/08/26 12:13:10;;;;;;;3.00;2.20;;;24.90;51.00;;;;;;4992730;28;20948;-65
2021/08/26 12:15:45;;;;;;;2.72;2.20;;;24.90;51.00;;;;;;4987303;28;20434;-65
2021/08/26 12:18:37;;;;;;;3.38;2.38;;;24.90;51.00;;;;;;4996352;28;20528;-66
2021/08/26 12:21:11;;;;;;;3.10;2.30;;;24.90;50.80;;;;;;4994685;28;20924;-66
2021/08/26 12:23:40;;;;;;;3.70;2.40;;;24.90;50.80;;;;;;4990564;28;20483;-65
2021/08/26 12:26:12;;;;;;;3.65;2.60;;;24.90;50.70;;;;;;4989423;28;20988;-65
2021/08/26 12:29:04;;;;;;;3.38;2.42;;;24.90;50.70;;;;;;4989342;28;20406;-65
2021/08/26 12:31:36;;;;;;;3.70;2.30;;;24.90;50.80;;;;;;4987084;28;20441;-64
2021/08/26 12:34:08;;;;;;;3.75;2.35;;;25.00;50.80;;;;;;4986794;28;20402;-65
2021/08/26 12:36:38;;;;;;;2.80;2.10;;;25.00;50.70;;;;;;4987377;28;20404;-65
2021/08/26 12:39:23;;;;;;;3.13;2.37;;;24.90;50.70;;;;;;5022291;28;20842;-65
2021/08/26 12:42:05;;;;;;;3.35;2.40;;;24.90;50.60;;;;;;4989789;28;20429;-65
2021/08/26 12:44:30;;;;;;;3.45;2.42;;;25.00;50.80;;;;;;4991906;28;20506;-65
2021/08/26 12:46:56;;;;;;;3.37;2.23;;;24.90;50.60;;;;;;4987928;28;20407;-65
2021/08/26 12:49:22;;;;;;;4.10;2.50;;;24.90;50.60;;;;;;4991834;28;20881;-65
2021/08/26 12:51:55;;;;;;;3.70;2.40;;;24.90;50.70;;;;;;4989803;28;20409;-65
2021/08/26 12:54:22;;;;;;;3.35;2.45;;;25.00;50.70;;;;;;4989723;28;20496;-65